sensor_id;sensor_type;location;lat;lon;timestamp;P1;durP1;ratioP1;P2;durP2;ratioP2
9836;SDS011;4957;51.412;6.724;2023-03-14T00:01:18;4.40;;;1.50;;
9836;SDS011;4957;51.412;6.724;2023-03-14T00:03:48;5.67;;;1.20;;
9836;SDS011;4957;51.412;6.724;2023-03-14T00:06:14;4.43;;;1.27;;
9836;SDS011;4957;51.412;6.724;2023-03-14T00:08:40;5.43;;;2.27;;
9836;SDS011;4957;51.412;6.724;2023-03-14T00:11:08;6.93;;;1.33;;
9836;SDS011;4957;51.412;6.724;2023-03-14T00:13:39;6.70;;;1.40;;
9836;SDS011;4957;51.412;6.724;2023-03-14T00:16:05;4.93;;;1.50;;
9836;SDS011;4957;51.412;6.724;2023-03-14T00:18:36;4.47;;;1.20;;
9836;SDS011;4957;51.412;6.724;2023-03-14T00:21:02;7.17;;;1.97;;
9836;SDS011;4957;51.412;6.724;2023-03-14T00:23:30;6.50;;;1.63;;
9836;SDS011;4957;51.412;6.724;2023-03-14T00:26:04;3.97;;;1.10;;
9836;SDS011;4957;51.412;6.724;2023-03-14T00:28:31;9.53;;;1.73;;
9836;SDS011;4957;51.412;6.724;2023-03-14T00:30:57;2.87;;;1.30;;
9836;SDS011;4957;51.412;6.724;2023-03-14T00:33:23;6.53;;;1.40;;
9836;SDS011;4957;51.412;6.724;2023-03-14T00:38:22;3.80;;;1.53;;
9836;SDS011;4957;51.412;6.724;2023-03-14T00:40:49;1.73;;;0.97;;
9836;SDS011;4957;51.412;6.724;2023-03-14T00:43:16;4.93;;;1.17;;
9836;SDS011;4957;51.412;6.724;2023-03-14T00:45:42;6.23;;;1.43;;
9836;SDS011;4957;51.412;6.724;2023-03-14T00:48:08;2.40;;;1.23;;
9836;SDS011;4957;51.412;6.724;2023-03-14T00:50:33;3.03;;;1.07;;
9836;SDS011;4957;51.412;6.724;2023-03-14T00:52:59;6.13;;;1.53;;
9836;SDS011;4957;51.412;6.724;2023-03-14T00:55:25;2.33;;;0.90;;
9836;SDS011;4957;51.412;6.724;2023-03-14T00:57:50;6.40;;;1.00;;
9836;SDS011;4957;51.412;6.724;2023-03-14T01:00:16;4.30;;;0.70;;
9836;SDS011;4957;51.412;6.724;2023-03-14T01:02:42;3.73;;;1.00;;
9836;SDS011;4957;51.412;6.724;2023-03-14T01:05:08;3.43;;;1.07;;
9836;SDS011;4957;51.412;6.724;2023-03-14T01:07:35;1.90;;;0.93;;
9836;SDS011;4957;51.412;6.724;2023-03-14T01:10:02;4.30;;;1.00;;
9836;SDS011;4957;51.412;6.724;2023-03-14T01:12:29;4.23;;;1.07;;
9836;SDS011;4957;51.412;6.724;2023-03-14T01:14:54;3.27;;;1.13;;
9836;SDS011;4957;51.412;6.724;2023-03-14T01:17:20;3.77;;;1.27;;
9836;SDS011;4957;51.412;6.724;2023-03-14T01:19:46;5.20;;;1.20;;
9836;SDS011;4957;51.412;6.724;2023-03-14T01:22:12;3.07;;;0.80;;
9836;SDS011;4957;51.412;6.724;2023-03-14T01:24:37;3.47;;;0.90;;
9836;SDS011;4957;51.412;6.724;2023-03-14T01:27:03;7.30;;;1.93;;
9836;SDS011;4957;51.412;6.724;2023-03-14T01:29:29;4.33;;;1.23;;
9836;SDS011;4957;51.412;6.724;2023-03-14T01:31:55;6.67;;;0.90;;
9836;SDS011;4957;51.412;6.724;2023-03-14T01:34:21;5.07;;;1.30;;
9836;SDS011;4957;51.412;6.724;2023-03-14T01:36:47;4.67;;;1.10;;
9836;SDS011;4957;51.412;6.724;2023-03-14T01:39:12;7.37;;;1.10;;
9836;SDS011;4957;51.412;6.724;2023-03-14T01:41:39;3.50;;;0.77;;
9836;SDS011;4957;51.412;6.724;2023-03-14T01:44:05;3.77;;;0.97;;
9836;SDS011;4957;51.412;6.724;2023-03-14T01:46:37;3.30;;;1.23;;
9836;SDS011;4957;51.412;6.724;2023-03-14T01:52:06;5.50;;;1.40;;
9836;SDS011;4957;51.412;6.724;2023-03-14T01:57:10;2.27;;;1.10;;
9836;SDS011;4957;51.412;6.724;2023-03-14T01:59:37;3.13;;;0.83;;
9836;SDS011;4957;51.412;6.724;2023-03-14T02:02:06;6.03;;;1.10;;
9836;SDS011;4957;51.412;6.724;2023-03-14T02:04:33;2.17;;;1.10;;
9836;SDS011;4957;51.412;6.724;2023-03-14T02:07:03;4.40;;;1.20;;
9836;SDS011;4957;51.412;6.724;2023-03-14T02:09:40;8.57;;;0.97;;
9836;SDS011;4957;51.412;6.724;2023-03-14T02:12:10;5.10;;;0.97;;
9836;SDS011;4957;51.412;6.724;2023-03-14T02:14:39;6.67;;;1.40;;
9836;SDS011;4957;51.412;6.724;2023-03-14T02:17:07;5.23;;;1.30;;
9836;SDS011;4957;51.412;6.724;2023-03-14T02:22:09;4.37;;;1.10;;
9836;SDS011;4957;51.412;6.724;2023-03-14T02:27:21;7.07;;;1.30;;
9836;SDS011;4957;51.412;6.724;2023-03-14T02:32:15;5.80;;;1.23;;
9836;SDS011;4957;51.412;6.724;2023-03-14T02:34:42;6.47;;;1.17;;
9836;SDS011;4957;51.412;6.724;2023-03-14T02:37:12;4.83;;;1.03;;
9836;SDS011;4957;51.412;6.724;2023-03-14T02:39:41;5.00;;;1.20;;
9836;SDS011;4957;51.412;6.724;2023-03-14T02:42:11;6.20;;;1.40;;
9836;SDS011;4957;51.412;6.724;2023-03-14T02:47:49;7.83;;;1.23;;
9836;SDS011;4957;51.412;6.724;2023-03-14T02:50:22;7.10;;;1.87;;
9836;SDS011;4957;51.412;6.724;2023-03-14T02:52:51;7.27;;;1.50;;
9836;SDS011;4957;51.412;6.724;2023-03-14T02:55:21;7.80;;;1.47;;
9836;SDS011;4957;51.412;6.724;2023-03-14T02:57:47;7.53;;;1.37;;
9836;SDS011;4957;51.412;6.724;2023-03-14T03:00:13;7.63;;;1.37;;
9836;SDS011;4957;51.412;6.724;2023-03-14T03:02:39;6.27;;;1.50;;
9836;SDS011;4957;51.412;6.724;2023-03-14T03:05:05;5.07;;;1.50;;
9836;SDS011;4957;51.412;6.724;2023-03-14T03:07:31;8.40;;;1.80;;
9836;SDS011;4957;51.412;6.724;2023-03-14T03:09:57;9.63;;;2.20;;
9836;SDS011;4957;51.412;6.724;2023-03-14T03:12:22;9.13;;;2.33;;
9836;SDS011;4957;51.412;6.724;2023-03-14T03:14:48;7.60;;;2.70;;
9836;SDS011;4957;51.412;6.724;2023-03-14T03:17:14;11.13;;;2.70;;
9836;SDS011;4957;51.412;6.724;2023-03-14T03:19:39;8.00;;;2.00;;
9836;SDS011;4957;51.412;6.724;2023-03-14T03:22:05;8.83;;;2.17;;
9836;SDS011;4957;51.412;6.724;2023-03-14T03:24:31;9.57;;;2.27;;
9836;SDS011;4957;51.412;6.724;2023-03-14T03:26:57;7.03;;;1.63;;
9836;SDS011;4957;51.412;6.724;2023-03-14T03:29:23;6.23;;;1.60;;
9836;SDS011;4957;51.412;6.724;2023-03-14T03:31:48;6.83;;;1.70;;
9836;SDS011;4957;51.412;6.724;2023-03-14T03:34:14;5.10;;;1.30;;
9836;SDS011;4957;51.412;6.724;2023-03-14T03:36:40;9.90;;;2.23;;
9836;SDS011;4957;51.412;6.724;2023-03-14T03:39:05;6.23;;;1.30;;
9836;SDS011;4957;51.412;6.724;2023-03-14T03:41:31;5.40;;;1.37;;
9836;SDS011;4957;51.412;6.724;2023-03-14T03:43:57;7.53;;;1.60;;
9836;SDS011;4957;51.412;6.724;2023-03-14T03:46:23;7.73;;;1.30;;
9836;SDS011;4957;51.412;6.724;2023-03-14T03:48:56;10.20;;;1.10;;
9836;SDS011;4957;51.412;6.724;2023-03-14T03:51:23;5.03;;;1.20;;
9836;SDS011;4957;51.412;6.724;2023-03-14T03:53:49;5.60;;;1.60;;
9836;SDS011;4957;51.412;6.724;2023-03-14T03:56:15;6.07;;;1.27;;
9836;SDS011;4957;51.412;6.724;2023-03-14T03:58:41;8.00;;;1.87;;
9836;SDS011;4957;51.412;6.724;2023-03-14T04:01:07;9.20;;;1.30;;
9836;SDS011;4957;51.412;6.724;2023-03-14T04:03:33;3.27;;;1.23;;
9836;SDS011;4957;51.412;6.724;2023-03-14T04:06:00;8.70;;;1.50;;
9836;SDS011;4957;51.412;6.724;2023-03-14T04:08:27;6.40;;;1.23;;
9836;SDS011;4957;51.412;6.724;2023-03-14T04:10:55;5.87;;;1.43;;
9836;SDS011;4957;51.412;6.724;2023-03-14T04:13:22;10.03;;;1.80;;
9836;SDS011;4957;51.412;6.724;2023-03-14T04:15:48;7.50;;;1.00;;
9836;SDS011;4957;51.412;6.724;2023-03-14T04:18:14;6.83;;;1.00;;
9836;SDS011;4957;51.412;6.724;2023-03-14T04:20:39;3.93;;;1.27;;
9836;SDS011;4957;51.412;6.724;2023-03-14T04:23:05;5.33;;;1.10;;
9836;SDS011;4957;51.412;6.724;2023-03-14T04:25:30;7.57;;;1.27;;
9836;SDS011;4957;51.412;6.724;2023-03-14T04:27:56;4.27;;;0.97;;
9836;SDS011;4957;51.412;6.724;2023-03-14T04:30:22;6.67;;;1.23;;
9836;SDS011;4957;51.412;6.724;2023-03-14T04:32:47;5.83;;;1.10;;
9836;SDS011;4957;51.412;6.724;2023-03-14T04:35:13;12.13;;;1.30;;
9836;SDS011;4957;51.412;6.724;2023-03-14T04:37:39;8.37;;;1.23;;
9836;SDS011;4957;51.412;6.724;2023-03-14T04:40:07;6.90;;;1.10;;
9836;SDS011;4957;51.412;6.724;2023-03-14T04:42:33;2.40;;;0.73;;
9836;SDS011;4957;51.412;6.724;2023-03-14T04:44:59;5.83;;;1.00;;
9836;SDS011;4957;51.412;6.724;2023-03-14T04:47:25;1.93;;;0.70;;
9836;SDS011;4957;51.412;6.724;2023-03-14T04:49:51;5.27;;;1.10;;
9836;SDS011;4957;51.412;6.724;2023-03-14T04:52:16;1.67;;;0.70;;
9836;SDS011;4957;51.412;6.724;2023-03-14T04:54:44;4.23;;;1.17;;
9836;SDS011;4957;51.412;6.724;2023-03-14T04:57:10;4.57;;;0.80;;
9836;SDS011;4957;51.412;6.724;2023-03-14T04:59:36;3.00;;;0.80;;
9836;SDS011;4957;51.412;6.724;2023-03-14T05:02:01;3.73;;;0.60;;
9836;SDS011;4957;51.412;6.724;2023-03-14T05:04:27;3.83;;;0.83;;
9836;SDS011;4957;51.412;6.724;2023-03-14T05:06:53;1.97;;;0.70;;
9836;SDS011;4957;51.412;6.724;2023-03-14T05:09:18;2.07;;;0.80;;
9836;SDS011;4957;51.412;6.724;2023-03-14T05:11:44;3.70;;;0.83;;
9836;SDS011;4957;51.412;6.724;2023-03-14T05:14:09;1.57;;;1.07;;
9836;SDS011;4957;51.412;6.724;2023-03-14T05:16:35;1.93;;;0.77;;
9836;SDS011;4957;51.412;6.724;2023-03-14T05:19:01;5.37;;;0.87;;
9836;SDS011;4957;51.412;6.724;2023-03-14T05:21:27;1.77;;;0.80;;
9836;SDS011;4957;51.412;6.724;2023-03-14T05:23:52;2.73;;;0.50;;
9836;SDS011;4957;51.412;6.724;2023-03-14T05:26:18;2.97;;;0.73;;
9836;SDS011;4957;51.412;6.724;2023-03-14T05:28:44;1.27;;;0.60;;
9836;SDS011;4957;51.412;6.724;2023-03-14T05:31:09;3.97;;;0.90;;
9836;SDS011;4957;51.412;6.724;2023-03-14T05:33:35;1.17;;;0.53;;
9836;SDS011;4957;51.412;6.724;2023-03-14T05:36:01;0.97;;;0.50;;
9836;SDS011;4957;51.412;6.724;2023-03-14T05:38:27;1.50;;;0.87;;
9836;SDS011;4957;51.412;6.724;2023-03-14T05:40:53;2.90;;;0.93;;
9836;SDS011;4957;51.412;6.724;2023-03-14T05:43:19;2.73;;;1.10;;
9836;SDS011;4957;51.412;6.724;2023-03-14T05:45:45;3.87;;;0.67;;
9836;SDS011;4957;51.412;6.724;2023-03-14T05:48:10;4.13;;;0.70;;
9836;SDS011;4957;51.412;6.724;2023-03-14T05:50:36;3.37;;;1.00;;
9836;SDS011;4957;51.412;6.724;2023-03-14T05:53:02;4.83;;;1.20;;
9836;SDS011;4957;51.412;6.724;2023-03-14T05:55:27;3.03;;;0.80;;
9836;SDS011;4957;51.412;6.724;2023-03-14T05:57:53;1.50;;;1.10;;
9836;SDS011;4957;51.412;6.724;2023-03-14T06:00:19;2.70;;;1.10;;
9836;SDS011;4957;51.412;6.724;2023-03-14T06:02:46;1.57;;;1.17;;
9836;SDS011;4957;51.412;6.724;2023-03-14T06:05:12;2.70;;;1.17;;
9836;SDS011;4957;51.412;6.724;2023-03-14T06:07:37;1.77;;;1.00;;
9836;SDS011;4957;51.412;6.724;2023-03-14T06:10:03;2.07;;;0.87;;
9836;SDS011;4957;51.412;6.724;2023-03-14T06:12:29;4.53;;;0.90;;
9836;SDS011;4957;51.412;6.724;2023-03-14T06:14:55;3.63;;;0.70;;
9836;SDS011;4957;51.412;6.724;2023-03-14T06:17:21;1.67;;;0.83;;
9836;SDS011;4957;51.412;6.724;2023-03-14T06:19:47;1.70;;;0.87;;
9836;SDS011;4957;51.412;6.724;2023-03-14T06:22:12;0.67;;;0.67;;
9836;SDS011;4957;51.412;6.724;2023-03-14T06:24:38;0.80;;;0.70;;
9836;SDS011;4957;51.412;6.724;2023-03-14T06:27:04;0.97;;;0.50;;
9836;SDS011;4957;51.412;6.724;2023-03-14T06:29:30;0.97;;;0.60;;
9836;SDS011;4957;51.412;6.724;2023-03-14T06:31:55;3.27;;;0.70;;
9836;SDS011;4957;51.412;6.724;2023-03-14T06:34:21;1.47;;;0.50;;
9836;SDS011;4957;51.412;6.724;2023-03-14T06:36:47;0.40;;;0.40;;
9836;SDS011;4957;51.412;6.724;2023-03-14T06:39:13;2.20;;;0.70;;
9836;SDS011;4957;51.412;6.724;2023-03-14T06:41:39;1.27;;;0.80;;
9836;SDS011;4957;51.412;6.724;2023-03-14T06:44:04;0.70;;;0.60;;
9836;SDS011;4957;51.412;6.724;2023-03-14T06:46:30;0.93;;;0.60;;
9836;SDS011;4957;51.412;6.724;2023-03-14T06:48:56;0.50;;;0.50;;
9836;SDS011;4957;51.412;6.724;2023-03-14T06:51:22;2.53;;;0.60;;
9836;SDS011;4957;51.412;6.724;2023-03-14T06:53:47;1.10;;;0.50;;
9836;SDS011;4957;51.412;6.724;2023-03-14T06:56:13;1.23;;;0.57;;
9836;SDS011;4957;51.412;6.724;2023-03-14T06:58:39;0.33;;;0.33;;
9836;SDS011;4957;51.412;6.724;2023-03-14T07:01:05;0.47;;;0.40;;
9836;SDS011;4957;51.412;6.724;2023-03-14T07:03:31;2.73;;;0.40;;
9836;SDS011;4957;51.412;6.724;2023-03-14T07:05:57;0.70;;;0.40;;
9836;SDS011;4957;51.412;6.724;2023-03-14T07:08:22;1.60;;;0.67;;
9836;SDS011;4957;51.412;6.724;2023-03-14T07:10:48;1.23;;;0.30;;
9836;SDS011;4957;51.412;6.724;2023-03-14T07:13:14;0.40;;;0.40;;
9836;SDS011;4957;51.412;6.724;2023-03-14T07:15:39;1.33;;;0.40;;
9836;SDS011;4957;51.412;6.724;2023-03-14T07:18:05;0.40;;;0.30;;
9836;SDS011;4957;51.412;6.724;2023-03-14T07:20:30;1.40;;;0.43;;
9836;SDS011;4957;51.412;6.724;2023-03-14T07:22:57;0.40;;;0.40;;
9836;SDS011;4957;51.412;6.724;2023-03-14T07:25:24;2.10;;;0.80;;
9836;SDS011;4957;51.412;6.724;2023-03-14T07:27:50;1.80;;;0.60;;
9836;SDS011;4957;51.412;6.724;2023-03-14T07:30:16;1.03;;;0.70;;
9836;SDS011;4957;51.412;6.724;2023-03-14T07:32:42;0.50;;;0.50;;
9836;SDS011;4957;51.412;6.724;2023-03-14T07:35:07;3.90;;;0.70;;
9836;SDS011;4957;51.412;6.724;2023-03-14T07:37:33;0.73;;;0.50;;
9836;SDS011;4957;51.412;6.724;2023-03-14T07:39:59;1.17;;;0.70;;
9836;SDS011;4957;51.412;6.724;2023-03-14T07:42:25;0.50;;;0.47;;
9836;SDS011;4957;51.412;6.724;2023-03-14T07:44:50;1.50;;;1.03;;
9836;SDS011;4957;51.412;6.724;2023-03-14T07:47:16;1.40;;;0.80;;
9836;SDS011;4957;51.412;6.724;2023-03-14T07:49:42;1.00;;;1.00;;
9836;SDS011;4957;51.412;6.724;2023-03-14T07:52:07;1.70;;;1.13;;
9836;SDS011;4957;51.412;6.724;2023-03-14T07:54:33;3.37;;;1.20;;
9836;SDS011;4957;51.412;6.724;2023-03-14T07:56:59;3.83;;;1.20;;
9836;SDS011;4957;51.412;6.724;2023-03-14T07:59:25;3.90;;;1.80;;
9836;SDS011;4957;51.412;6.724;2023-03-14T08:01:54;1.63;;;1.53;;
9836;SDS011;4957;51.412;6.724;2023-03-14T08:04:20;2.13;;;1.93;;
9836;SDS011;4957;51.412;6.724;2023-03-14T08:06:45;2.30;;;2.10;;
9836;SDS011;4957;51.412;6.724;2023-03-14T08:09:11;6.93;;;2.57;;
9836;SDS011;4957;51.412;6.724;2023-03-14T08:11:36;6.33;;;3.03;;
9836;SDS011;4957;51.412;6.724;2023-03-14T08:14:02;5.90;;;3.17;;
9836;SDS011;4957;51.412;6.724;2023-03-14T08:16:28;4.90;;;3.33;;
9836;SDS011;4957;51.412;6.724;2023-03-14T08:18:54;10.57;;;3.80;;
9836;SDS011;4957;51.412;6.724;2023-03-14T08:21:19;5.17;;;4.30;;
9836;SDS011;4957;51.412;6.724;2023-03-14T08:23:45;3.50;;;3.20;;
9836;SDS011;4957;51.412;6.724;2023-03-14T08:26:10;4.00;;;2.53;;
9836;SDS011;4957;51.412;6.724;2023-03-14T08:28:36;4.87;;;2.37;;
9836;SDS011;4957;51.412;6.724;2023-03-14T08:31:02;2.30;;;2.10;;
9836;SDS011;4957;51.412;6.724;2023-03-14T08:33:28;2.37;;;2.03;;
9836;SDS011;4957;51.412;6.724;2023-03-14T08:35:55;2.37;;;2.00;;
9836;SDS011;4957;51.412;6.724;2023-03-14T08:38:22;3.43;;;2.53;;
9836;SDS011;4957;51.412;6.724;2023-03-14T08:40:48;4.27;;;3.00;;
9836;SDS011;4957;51.412;6.724;2023-03-14T08:43:15;4.53;;;2.33;;
9836;SDS011;4957;51.412;6.724;2023-03-14T08:45:40;8.23;;;2.50;;
9836;SDS011;4957;51.412;6.724;2023-03-14T08:48:06;3.87;;;1.90;;
9836;SDS011;4957;51.412;6.724;2023-03-14T08:50:33;1.50;;;1.33;;
9836;SDS011;4957;51.412;6.724;2023-03-14T08:52:58;2.30;;;1.43;;
9836;SDS011;4957;51.412;6.724;2023-03-14T08:55:25;5.10;;;1.50;;
9836;SDS011;4957;51.412;6.724;2023-03-14T08:57:54;0.60;;;0.60;;
9836;SDS011;4957;51.412;6.724;2023-03-14T09:00:20;3.70;;;1.13;;
9836;SDS011;4957;51.412;6.724;2023-03-14T09:02:46;4.87;;;1.17;;
9836;SDS011;4957;51.412;6.724;2023-03-14T09:05:12;2.63;;;1.10;;
9836;SDS011;4957;51.412;6.724;2023-03-14T09:07:38;5.40;;;1.20;;
9836;SDS011;4957;51.412;6.724;2023-03-14T09:10:04;0.33;;;0.33;;
9836;SDS011;4957;51.412;6.724;2023-03-14T09:12:31;1.33;;;0.57;;
9836;SDS011;4957;51.412;6.724;2023-03-14T09:14:57;0.40;;;0.40;;
9836;SDS011;4957;51.412;6.724;2023-03-14T09:17:23;0.87;;;0.33;;
9836;SDS011;4957;51.412;6.724;2023-03-14T09:19:48;1.70;;;0.47;;
9836;SDS011;4957;51.412;6.724;2023-03-14T09:22:14;2.90;;;0.60;;
9836;SDS011;4957;51.412;6.724;2023-03-14T09:24:40;2.80;;;0.60;;
9836;SDS011;4957;51.412;6.724;2023-03-14T09:27:06;2.00;;;1.57;;
9836;SDS011;4957;51.412;6.724;2023-03-14T09:29:32;1.13;;;0.40;;
9836;SDS011;4957;51.412;6.724;2023-03-14T09:31:58;1.60;;;0.50;;
9836;SDS011;4957;51.412;6.724;2023-03-14T09:34:24;1.60;;;0.50;;
9836;SDS011;4957;51.412;6.724;2023-03-14T09:36:50;1.37;;;1.00;;
9836;SDS011;4957;51.412;6.724;2023-03-14T09:39:16;1.33;;;0.80;;
9836;SDS011;4957;51.412;6.724;2023-03-14T09:41:46;0.57;;;0.57;;
9836;SDS011;4957;51.412;6.724;2023-03-14T09:44:16;0.83;;;0.83;;
9836;SDS011;4957;51.412;6.724;2023-03-14T09:46:47;1.00;;;0.90;;
9836;SDS011;4957;51.412;6.724;2023-03-14T09:51:53;0.80;;;0.80;;
9836;SDS011;4957;51.412;6.724;2023-03-14T09:56:55;2.57;;;1.17;;
9836;SDS011;4957;51.412;6.724;2023-03-14T09:59:21;1.80;;;1.23;;
9836;SDS011;4957;51.412;6.724;2023-03-14T10:01:49;2.70;;;1.20;;
9836;SDS011;4957;51.412;6.724;2023-03-14T10:04:17;1.40;;;1.30;;
9836;SDS011;4957;51.412;6.724;2023-03-14T10:06:47;2.13;;;1.30;;
9836;SDS011;4957;51.412;6.724;2023-03-14T10:09:17;1.30;;;0.97;;
9836;SDS011;4957;51.412;6.724;2023-03-14T10:11:51;1.37;;;0.90;;
9836;SDS011;4957;51.412;6.724;2023-03-14T10:14:34;1.30;;;0.80;;
9836;SDS011;4957;51.412;6.724;2023-03-14T10:17:09;0.80;;;0.80;;
9836;SDS011;4957;51.412;6.724;2023-03-14T10:19:38;3.27;;;0.87;;
9836;SDS011;4957;51.412;6.724;2023-03-14T10:22:17;0.70;;;0.70;;
9836;SDS011;4957;51.412;6.724;2023-03-14T10:25:23;2.77;;;1.00;;
9836;SDS011;4957;51.412;6.724;2023-03-14T10:27:49;2.13;;;1.20;;
9836;SDS011;4957;51.412;6.724;2023-03-14T10:30:37;1.97;;;0.80;;
9836;SDS011;4957;51.412;6.724;2023-03-14T10:33:21;0.63;;;0.63;;
9836;SDS011;4957;51.412;6.724;2023-03-14T10:35:52;2.40;;;0.60;;
9836;SDS011;4957;51.412;6.724;2023-03-14T10:38:33;1.40;;;0.40;;
9836;SDS011;4957;51.412;6.724;2023-03-14T10:41:01;0.90;;;0.90;;
9836;SDS011;4957;51.412;6.724;2023-03-14T10:43:38;1.60;;;0.53;;
9836;SDS011;4957;51.412;6.724;2023-03-14T10:46:07;2.37;;;0.70;;
9836;SDS011;4957;51.412;6.724;2023-03-14T10:48:35;1.30;;;0.83;;
9836;SDS011;4957;51.412;6.724;2023-03-14T10:51:10;2.30;;;1.00;;
9836;SDS011;4957;51.412;6.724;2023-03-14T10:53:49;1.30;;;0.90;;
9836;SDS011;4957;51.412;6.724;2023-03-14T10:56:21;2.00;;;1.10;;
9836;SDS011;4957;51.412;6.724;2023-03-14T10:58:49;1.73;;;1.00;;
9836;SDS011;4957;51.412;6.724;2023-03-14T11:03:43;1.80;;;1.20;;
9836;SDS011;4957;51.412;6.724;2023-03-14T11:06:25;2.13;;;1.00;;
9836;SDS011;4957;51.412;6.724;2023-03-14T11:09:02;1.30;;;1.03;;
9836;SDS011;4957;51.412;6.724;2023-03-14T11:11:37;2.07;;;1.13;;
9836;SDS011;4957;51.412;6.724;2023-03-14T11:16:39;1.97;;;1.10;;
9836;SDS011;4957;51.412;6.724;2023-03-14T11:22:14;2.97;;;0.90;;
9836;SDS011;4957;51.412;6.724;2023-03-14T11:28:17;1.37;;;0.67;;
9836;SDS011;4957;51.412;6.724;2023-03-14T11:31:13;3.13;;;0.60;;
9836;SDS011;4957;51.412;6.724;2023-03-14T11:33:47;2.50;;;1.20;;
9836;SDS011;4957;51.412;6.724;2023-03-14T11:36:33;3.63;;;1.20;;
9836;SDS011;4957;51.412;6.724;2023-03-14T11:39:12;2.67;;;1.17;;
9836;SDS011;4957;51.412;6.724;2023-03-14T11:41:41;4.00;;;0.80;;
9836;SDS011;4957;51.412;6.724;2023-03-14T11:44:14;1.27;;;0.70;;
9836;SDS011;4957;51.412;6.724;2023-03-14T11:46:43;1.63;;;0.70;;
9836;SDS011;4957;51.412;6.724;2023-03-14T11:51:46;3.10;;;1.10;;
9836;SDS011;4957;51.412;6.724;2023-03-14T11:56:51;3.77;;;0.97;;
9836;SDS011;4957;51.412;6.724;2023-03-14T11:59:26;2.20;;;0.90;;
9836;SDS011;4957;51.412;6.724;2023-03-14T12:08:02;3.17;;;0.90;;
9836;SDS011;4957;51.412;6.724;2023-03-14T12:10:38;5.10;;;1.03;;
9836;SDS011;4957;51.412;6.724;2023-03-14T12:13:10;2.60;;;0.80;;
9836;SDS011;4957;51.412;6.724;2023-03-14T12:15:39;4.80;;;1.20;;
9836;SDS011;4957;51.412;6.724;2023-03-14T12:18:19;7.80;;;1.33;;
9836;SDS011;4957;51.412;6.724;2023-03-14T12:21:09;4.57;;;1.37;;
9836;SDS011;4957;51.412;6.724;2023-03-14T12:23:52;5.20;;;1.17;;
9836;SDS011;4957;51.412;6.724;2023-03-14T12:26:21;3.80;;;1.07;;
9836;SDS011;4957;51.412;6.724;2023-03-14T12:34:04;4.70;;;0.97;;
9836;SDS011;4957;51.412;6.724;2023-03-14T12:36:59;4.67;;;1.30;;
9836;SDS011;4957;51.412;6.724;2023-03-14T12:39:37;5.63;;;1.07;;
9836;SDS011;4957;51.412;6.724;2023-03-14T12:47:46;9.23;;;2.20;;
9836;SDS011;4957;51.412;6.724;2023-03-14T12:50:19;9.40;;;1.80;;
9836;SDS011;4957;51.412;6.724;2023-03-14T12:58:44;7.80;;;2.20;;
9836;SDS011;4957;51.412;6.724;2023-03-14T13:01:19;9.77;;;1.90;;
9836;SDS011;4957;51.412;6.724;2023-03-14T13:12:02;6.83;;;1.53;;
9836;SDS011;4957;51.412;6.724;2023-03-14T13:14:49;10.20;;;1.70;;
9836;SDS011;4957;51.412;6.724;2023-03-14T13:17:22;10.93;;;2.07;;
9836;SDS011;4957;51.412;6.724;2023-03-14T13:19:52;10.83;;;1.97;;
9836;SDS011;4957;51.412;6.724;2023-03-14T13:22:27;10.60;;;2.03;;
9836;SDS011;4957;51.412;6.724;2023-03-14T13:25:04;12.03;;;2.00;;
9836;SDS011;4957;51.412;6.724;2023-03-14T13:27:32;8.20;;;1.63;;
9836;SDS011;4957;51.412;6.724;2023-03-14T13:30:46;15.07;;;2.73;;
9836;SDS011;4957;51.412;6.724;2023-03-14T13:32:52;12.40;;;2.80;;
9836;SDS011;4957;51.412;6.724;2023-03-14T13:35:20;11.23;;;2.10;;
9836;SDS011;4957;51.412;6.724;2023-03-14T13:37:59;15.90;;;2.90;;
9836;SDS011;4957;51.412;6.724;2023-03-14T13:40:31;12.33;;;2.43;;
9836;SDS011;4957;51.412;6.724;2023-03-14T13:42:59;13.07;;;2.63;;
9836;SDS011;4957;51.412;6.724;2023-03-14T13:45:30;12.47;;;2.57;;
9836;SDS011;4957;51.412;6.724;2023-03-14T13:47:56;14.57;;;2.57;;
9836;SDS011;4957;51.412;6.724;2023-03-14T13:50:22;11.00;;;2.40;;
9836;SDS011;4957;51.412;6.724;2023-03-14T13:52:47;10.30;;;2.63;;
9836;SDS011;4957;51.412;6.724;2023-03-14T13:55:21;15.40;;;2.67;;
9836;SDS011;4957;51.412;6.724;2023-03-14T13:57:53;16.60;;;2.33;;
9836;SDS011;4957;51.412;6.724;2023-03-14T14:00:22;14.57;;;2.30;;
9836;SDS011;4957;51.412;6.724;2023-03-14T14:02:52;19.50;;;3.20;;
9836;SDS011;4957;51.412;6.724;2023-03-14T14:05:23;18.60;;;3.07;;
9836;SDS011;4957;51.412;6.724;2023-03-14T14:07:52;11.17;;;1.80;;
9836;SDS011;4957;51.412;6.724;2023-03-14T14:10:18;6.70;;;1.53;;
9836;SDS011;4957;51.412;6.724;2023-03-14T14:12:55;8.63;;;1.53;;
9836;SDS011;4957;51.412;6.724;2023-03-14T14:15:28;9.47;;;1.80;;
9836;SDS011;4957;51.412;6.724;2023-03-14T14:18:00;7.10;;;1.77;;
9836;SDS011;4957;51.412;6.724;2023-03-14T14:20:29;6.60;;;1.23;;
9836;SDS011;4957;51.412;6.724;2023-03-14T14:23:07;11.47;;;2.30;;
9836;SDS011;4957;51.412;6.724;2023-03-14T14:25:36;7.90;;;1.43;;
9836;SDS011;4957;51.412;6.724;2023-03-14T14:28:23;7.87;;;1.43;;
9836;SDS011;4957;51.412;6.724;2023-03-14T14:31:38;11.47;;;1.60;;
9836;SDS011;4957;51.412;6.724;2023-03-14T14:33:42;7.70;;;1.60;;
9836;SDS011;4957;51.412;6.724;2023-03-14T14:36:20;7.30;;;1.50;;
9836;SDS011;4957;51.412;6.724;2023-03-14T14:38:53;10.13;;;1.80;;
9836;SDS011;4957;51.412;6.724;2023-03-14T14:41:22;9.37;;;1.77;;
9836;SDS011;4957;51.412;6.724;2023-03-14T14:43:52;5.70;;;1.27;;
9836;SDS011;4957;51.412;6.724;2023-03-14T14:46:18;10.63;;;1.60;;
9836;SDS011;4957;51.412;6.724;2023-03-14T14:48:44;6.80;;;1.67;;
9836;SDS011;4957;51.412;6.724;2023-03-14T14:51:21;6.13;;;1.37;;
9836;SDS011;4957;51.412;6.724;2023-03-14T14:53:59;9.63;;;2.10;;
9836;SDS011;4957;51.412;6.724;2023-03-14T14:56:28;7.93;;;1.73;;
9836;SDS011;4957;51.412;6.724;2023-03-14T14:58:57;8.53;;;2.20;;
9836;SDS011;4957;51.412;6.724;2023-03-14T15:01:30;14.23;;;3.20;;
9836;SDS011;4957;51.412;6.724;2023-03-14T15:03:59;9.17;;;2.27;;
9836;SDS011;4957;51.412;6.724;2023-03-14T15:06:26;11.20;;;3.33;;
9836;SDS011;4957;51.412;6.724;2023-03-14T15:08:54;6.80;;;2.60;;
9836;SDS011;4957;51.412;6.724;2023-03-14T15:11:21;8.93;;;2.33;;
9836;SDS011;4957;51.412;6.724;2023-03-14T15:13:50;8.73;;;2.20;;
9836;SDS011;4957;51.412;6.724;2023-03-14T15:16:17;5.17;;;1.80;;
9836;SDS011;4957;51.412;6.724;2023-03-14T15:18:47;3.50;;;1.27;;
9836;SDS011;4957;51.412;6.724;2023-03-14T15:21:17;7.67;;;1.70;;
9836;SDS011;4957;51.412;6.724;2023-03-14T15:23:43;6.77;;;1.40;;
9836;SDS011;4957;51.412;6.724;2023-03-14T15:26:16;6.23;;;1.70;;
9836;SDS011;4957;51.412;6.724;2023-03-14T15:28:44;6.17;;;1.30;;
9836;SDS011;4957;51.412;6.724;2023-03-14T15:31:12;6.37;;;1.17;;
9836;SDS011;4957;51.412;6.724;2023-03-14T15:33:39;6.70;;;1.50;;
9836;SDS011;4957;51.412;6.724;2023-03-14T15:36:06;9.23;;;1.50;;
9836;SDS011;4957;51.412;6.724;2023-03-14T15:38:44;3.60;;;1.60;;
9836;SDS011;4957;51.412;6.724;2023-03-14T15:41:10;5.83;;;2.33;;
9836;SDS011;4957;51.412;6.724;2023-03-14T15:43:36;5.97;;;1.50;;
9836;SDS011;4957;51.412;6.724;2023-03-14T15:46:01;5.50;;;1.70;;
9836;SDS011;4957;51.412;6.724;2023-03-14T15:48:27;5.93;;;1.33;;
9836;SDS011;4957;51.412;6.724;2023-03-14T15:50:53;7.60;;;1.83;;
9836;SDS011;4957;51.412;6.724;2023-03-14T15:53:18;2.87;;;1.23;;
9836;SDS011;4957;51.412;6.724;2023-03-14T15:55:44;8.10;;;1.40;;
9836;SDS011;4957;51.412;6.724;2023-03-14T15:58:13;4.67;;;1.63;;
9836;SDS011;4957;51.412;6.724;2023-03-14T16:00:42;6.07;;;1.67;;
9836;SDS011;4957;51.412;6.724;2023-03-14T16:03:07;5.17;;;1.00;;
9836;SDS011;4957;51.412;6.724;2023-03-14T16:05:33;1.87;;;1.13;;
9836;SDS011;4957;51.412;6.724;2023-03-14T16:07:58;7.43;;;2.50;;
9836;SDS011;4957;51.412;6.724;2023-03-14T16:10:26;7.10;;;1.63;;
9836;SDS011;4957;51.412;6.724;2023-03-14T16:12:52;6.37;;;1.43;;
9836;SDS011;4957;51.412;6.724;2023-03-14T16:15:18;10.10;;;1.87;;
9836;SDS011;4957;51.412;6.724;2023-03-14T16:17:43;5.97;;;2.97;;
9836;SDS011;4957;51.412;6.724;2023-03-14T16:20:09;4.80;;;1.77;;
9836;SDS011;4957;51.412;6.724;2023-03-14T16:22:36;8.73;;;1.50;;
9836;SDS011;4957;51.412;6.724;2023-03-14T16:25:05;5.97;;;1.80;;
9836;SDS011;4957;51.412;6.724;2023-03-14T16:27:33;3.80;;;1.40;;
9836;SDS011;4957;51.412;6.724;2023-03-14T16:29:59;4.80;;;1.47;;
9836;SDS011;4957;51.412;6.724;2023-03-14T16:32:25;10.47;;;2.00;;
9836;SDS011;4957;51.412;6.724;2023-03-14T16:34:51;8.13;;;2.53;;